N56AT PAVD-PAJN
Flight info
| Callsign | N56AT |
|---|---|
| Flight time | 1h 24m |
| Altitude | 35000 |
| Route | JMAAL4 NAKED JOH YAK BERGS |
| Aircraft | STAR/L-DFHILM3ORUVWY/W |
Departure
| Time | 2026-04-21 22:19 |
|---|---|
| Airport | Valdez Pioneer Field (PAVD) |
Arrival
| Time | 2026-04-21 23:43 |
|---|---|
| Airport | Juneau International Airport (PAJN) |
| Time | Latitude | Longitude | Altitude | Speed | Heading |
|---|---|---|---|---|---|
| 2026-04-21 22:03 | 61.13223 | -146.24078 | 92 ft | 0 kts | 358° |
| 2026-04-21 22:15 | 61.13225 | -146.24078 | 94 ft | 0 kts | 357° |
| 2026-04-21 22:16 | 61.13257 | -146.24067 | 95 ft | 13 kts | 31° |
| 2026-04-21 22:16 | 61.13297 | -146.23785 | 99 ft | 29 kts | 76° |
| 2026-04-21 22:16 | 61.13336 | -146.23302 | 109 ft | 38 kts | 80° |
| 2026-04-21 22:16 | 61.13364 | -146.22972 | 120 ft | 26 kts | 79° |
| 2026-04-21 22:17 | 61.13391 | -146.22696 | 127 ft | 19 kts | 69° |
| 2026-04-21 22:17 | 61.13529 | -146.22682 | 127 ft | 17 kts | 336° |
| 2026-04-21 22:17 | 61.13546 | -146.22762 | 124 ft | 0 kts | 264° |
| 2026-04-21 22:18 | 61.13545 | -146.22785 | 125 ft | 14 kts | 262° |
| 2026-04-21 22:18 | 61.13502 | -146.23364 | 108 ft | 66 kts | 261° |
| 2026-04-21 22:19 | 61.13407 | -146.24602 | 139 ft | 106 kts | 259° |
| 2026-04-21 22:19 | 61.13284 | -146.26277 | 734 ft | 125 kts | 259° |
| 2026-04-21 22:19 | 61.13116 | -146.28112 | 1376 ft | 139 kts | 257° |
| 2026-04-21 22:19 | 61.12904 | -146.30051 | 2036 ft | 138 kts | 256° |
| 2026-04-21 22:20 | 61.12676 | -146.32132 | 2574 ft | 163 kts | 256° |
| 2026-04-21 22:20 | 61.12427 | -146.34429 | 3556 ft | 166 kts | 257° |
| 2026-04-21 22:20 | 61.12309 | -146.37039 | 3832 ft | 197 kts | 267° |
| 2026-04-21 22:20 | 61.12283 | -146.40072 | 4100 ft | 223 kts | 269° |
| 2026-04-21 22:21 | 61.12190 | -146.43414 | 4291 ft | 243 kts | 262° |
| 2026-04-21 22:21 | 61.11879 | -146.46950 | 4378 ft | 253 kts | 257° |
| 2026-04-21 22:21 | 61.11435 | -146.50472 | 4416 ft | 252 kts | 250° |
| 2026-04-21 22:21 | 61.10784 | -146.53802 | 4433 ft | 247 kts | 246° |
| 2026-04-21 22:22 | 61.10093 | -146.56974 | 4443 ft | 237 kts | 243° |
| 2026-04-21 22:22 | 61.09238 | -146.59822 | 4448 ft | 229 kts | 235° |
| 2026-04-21 22:22 | 61.08320 | -146.62464 | 4449 ft | 223 kts | 233° |
| 2026-04-21 22:22 | 61.07380 | -146.64972 | 4445 ft | 218 kts | 227° |
| 2026-04-21 22:23 | 61.06291 | -146.67063 | 4445 ft | 217 kts | 219° |
| 2026-04-21 22:23 | 61.05048 | -146.69044 | 4446 ft | 235 kts | 216° |
| 2026-04-21 22:23 | 61.03554 | -146.70605 | 4446 ft | 248 kts | 200° |
| 2026-04-21 22:23 | 61.01882 | -146.71691 | 4445 ft | 254 kts | 194° |
| 2026-04-21 22:24 | 61.00134 | -146.72182 | 4439 ft | 254 kts | 185° |
| 2026-04-21 22:24 | 60.98404 | -146.72413 | 4440 ft | 244 kts | 183° |
| 2026-04-21 22:24 | 60.96773 | -146.72553 | 4757 ft | 220 kts | 182° |
| 2026-04-21 22:24 | 60.95339 | -146.72649 | 5243 ft | 193 kts | 182° |
| 2026-04-21 22:25 | 60.94070 | -146.72700 | 5985 ft | 173 kts | 182° |
| 2026-04-21 22:25 | 60.92905 | -146.72712 | 7015 ft | 162 kts | 182° |
| 2026-04-21 22:25 | 60.91808 | -146.72668 | 8019 ft | 155 kts | 178° |
| 2026-04-21 22:25 | 60.90762 | -146.72322 | 9019 ft | 150 kts | 173° |
| 2026-04-21 22:26 | 60.89755 | -146.71868 | 9962 ft | 148 kts | 172° |
| 2026-04-21 22:26 | 60.88738 | -146.71419 | 10735 ft | 151 kts | 177° |
| 2026-04-21 22:26 | 60.87695 | -146.71147 | 11492 ft | 155 kts | 182° |
| 2026-04-21 22:26 | 60.86607 | -146.70882 | 12292 ft | 160 kts | 183° |
| 2026-04-21 22:27 | 60.85483 | -146.70552 | 13111 ft | 166 kts | 184° |
| 2026-04-21 22:27 | 60.84325 | -146.70200 | 13931 ft | 170 kts | 186° |
| 2026-04-21 22:27 | 60.83141 | -146.69871 | 14659 ft | 172 kts | 187° |
| 2026-04-21 22:27 | 60.81951 | -146.69526 | 15403 ft | 173 kts | 189° |
| 2026-04-21 22:28 | 60.80748 | -146.69187 | 16142 ft | 176 kts | 191° |
| 2026-04-21 22:28 | 60.79529 | -146.68846 | 16902 ft | 178 kts | 191° |
| 2026-04-21 22:28 | 60.78292 | -146.68487 | 17682 ft | 181 kts | 191° |
| 2026-04-21 22:28 | 60.77038 | -146.68126 | 18472 ft | 183 kts | 192° |
| 2026-04-21 22:29 | 60.75766 | -146.67760 | 19135 ft | 187 kts | 193° |
| 2026-04-21 22:29 | 60.74467 | -146.67395 | 19809 ft | 190 kts | 194° |
| 2026-04-21 22:29 | 60.73143 | -146.67019 | 20476 ft | 194 kts | 195° |
| 2026-04-21 22:29 | 60.71794 | -146.66631 | 21147 ft | 197 kts | 196° |
| 2026-04-21 22:30 | 60.70426 | -146.66241 | 21835 ft | 200 kts | 197° |
| 2026-04-21 22:30 | 60.69054 | -146.65853 | 22572 ft | 204 kts | 198° |
| 2026-04-21 22:30 | 60.67637 | -146.65452 | 23295 ft | 207 kts | 198° |
| 2026-04-21 22:30 | 60.66197 | -146.65038 | 23927 ft | 210 kts | 199° |
| 2026-04-21 22:31 | 60.64738 | -146.64631 | 24501 ft | 213 kts | 199° |
| 2026-04-21 22:31 | 60.63253 | -146.64212 | 25071 ft | 217 kts | 199° |
| 2026-04-21 22:31 | 60.61749 | -146.63780 | 25645 ft | 220 kts | 199° |
| 2026-04-21 22:31 | 60.60226 | -146.63349 | 26215 ft | 223 kts | 199° |
| 2026-04-21 22:32 | 60.58674 | -146.62913 | 26788 ft | 226 kts | 199° |
| 2026-04-21 22:32 | 60.57110 | -146.62471 | 27354 ft | 229 kts | 199° |
| 2026-04-21 22:32 | 60.55521 | -146.62022 | 27917 ft | 232 kts | 199° |
| 2026-04-21 22:32 | 60.53910 | -146.61569 | 28473 ft | 235 kts | 199° |
| 2026-04-21 22:33 | 60.52252 | -146.60945 | 29025 ft | 255 kts | 188° |
| 2026-04-21 22:33 | 60.50529 | -146.59555 | 29561 ft | 278 kts | 172° |
| 2026-04-21 22:33 | 60.48844 | -146.57374 | 30086 ft | 297 kts | 156° |
| 2026-04-21 22:33 | 60.47310 | -146.54505 | 30562 ft | 309 kts | 141° |
| 2026-04-21 22:34 | 60.45995 | -146.51026 | 31073 ft | 313 kts | 126° |
| 2026-04-21 22:34 | 60.44983 | -146.47121 | 31578 ft | 313 kts | 112° |
| 2026-04-21 22:34 | 60.44315 | -146.42957 | 32076 ft | 309 kts | 98° |
| 2026-04-21 22:34 | 60.44011 | -146.38698 | 32506 ft | 302 kts | 84° |
| 2026-04-21 22:35 | 60.43980 | -146.34476 | 32961 ft | 299 kts | 80° |
| 2026-04-21 22:35 | 60.43960 | -146.30275 | 33396 ft | 300 kts | 83° |
| 2026-04-21 22:35 | 60.43846 | -146.26031 | 33789 ft | 302 kts | 88° |
| 2026-04-21 22:35 | 60.43627 | -146.21779 | 34150 ft | 304 kts | 91° |
| 2026-04-21 22:36 | 60.42918 | -146.13319 | 34679 ft | 310 kts | 102° |
| 2026-04-21 22:36 | 60.42366 | -146.09042 | 34795 ft | 317 kts | 100° |
| 2026-04-21 22:36 | 60.41905 | -146.04628 | 34853 ft | 326 kts | 99° |
| 2026-04-21 22:37 | 60.40832 | -145.95418 | 34894 ft | 345 kts | 100° |
| 2026-04-21 22:37 | 60.39717 | -145.85753 | 34905 ft | 359 kts | 101° |
| 2026-04-21 22:38 | 60.38561 | -145.75778 | 34910 ft | 369 kts | 101° |
| 2026-04-21 22:38 | 60.37378 | -145.65673 | 34895 ft | 374 kts | 101° |
| 2026-04-21 22:39 | 60.36162 | -145.55381 | 34906 ft | 378 kts | 101° |
| 2026-04-21 22:39 | 60.34928 | -145.45003 | 34891 ft | 381 kts | 101° |
| 2026-04-21 22:40 | 60.33680 | -145.34589 | 34894 ft | 382 kts | 101° |
| 2026-04-21 22:40 | 60.32419 | -145.24132 | 34893 ft | 384 kts | 101° |
| 2026-04-21 22:41 | 60.31146 | -145.13658 | 34883 ft | 384 kts | 102° |
| 2026-04-21 22:41 | 60.29862 | -145.03188 | 34874 ft | 384 kts | 101° |
| 2026-04-21 22:42 | 60.28583 | -144.92795 | 34877 ft | 384 kts | 101° |
| 2026-04-21 22:42 | 60.27284 | -144.82334 | 34876 ft | 384 kts | 101° |
| 2026-04-21 22:43 | 60.25978 | -144.71893 | 34904 ft | 384 kts | 102° |
| 2026-04-21 22:43 | 60.24665 | -144.61475 | 34885 ft | 383 kts | 102° |
| 2026-04-21 22:44 | 60.23345 | -144.51072 | 34884 ft | 382 kts | 102° |
| 2026-04-21 22:44 | 60.22025 | -144.40735 | 34871 ft | 381 kts | 103° |
| 2026-04-21 22:45 | 60.20699 | -144.30426 | 34868 ft | 380 kts | 102° |
| 2026-04-21 22:45 | 60.19381 | -144.20231 | 34877 ft | 379 kts | 102° |
| 2026-04-21 22:46 | 60.18039 | -144.09943 | 34873 ft | 378 kts | 102° |
| 2026-04-21 22:46 | 60.16706 | -143.99792 | 34875 ft | 378 kts | 102° |
| 2026-04-21 22:47 | 60.15356 | -143.89574 | 34879 ft | 378 kts | 102° |
| 2026-04-21 22:47 | 60.13999 | -143.79369 | 34879 ft | 378 kts | 103° |
| 2026-04-21 22:48 | 60.12631 | -143.69150 | 34882 ft | 378 kts | 103° |
| 2026-04-21 22:48 | 60.11258 | -143.58963 | 34883 ft | 379 kts | 103° |
| 2026-04-21 22:49 | 60.09875 | -143.48764 | 34883 ft | 379 kts | 103° |
| 2026-04-21 22:49 | 60.08486 | -143.38591 | 34881 ft | 379 kts | 103° |
| 2026-04-21 22:50 | 60.07089 | -143.28422 | 34881 ft | 379 kts | 103° |
| 2026-04-21 22:50 | 60.05693 | -143.18328 | 34881 ft | 379 kts | 103° |
| 2026-04-21 22:51 | 60.04281 | -143.08178 | 34878 ft | 379 kts | 103° |
| 2026-04-21 22:51 | 60.02862 | -142.98049 | 34884 ft | 378 kts | 103° |
| 2026-04-21 22:52 | 60.01437 | -142.87940 | 34878 ft | 377 kts | 103° |
| 2026-04-21 22:52 | 60.00009 | -142.77866 | 34880 ft | 377 kts | 104° |
| 2026-04-21 22:53 | 59.98572 | -142.67797 | 34882 ft | 376 kts | 104° |
| 2026-04-21 22:53 | 59.97131 | -142.57762 | 34883 ft | 376 kts | 104° |
| 2026-04-21 22:54 | 59.95681 | -142.47720 | 34883 ft | 376 kts | 104° |
| 2026-04-21 22:54 | 59.94226 | -142.37714 | 34883 ft | 376 kts | 104° |
| 2026-04-21 22:55 | 59.92775 | -142.27792 | 34880 ft | 374 kts | 104° |
| 2026-04-21 22:55 | 59.91311 | -142.17841 | 34882 ft | 374 kts | 104° |
| 2026-04-21 22:56 | 59.89841 | -142.07910 | 34880 ft | 373 kts | 104° |
| 2026-04-21 22:56 | 59.88366 | -141.98001 | 34880 ft | 373 kts | 104° |
| 2026-04-21 22:57 | 59.86884 | -141.88103 | 34883 ft | 373 kts | 104° |
| 2026-04-21 22:57 | 59.85395 | -141.78219 | 34883 ft | 373 kts | 104° |
| 2026-04-21 22:58 | 59.83898 | -141.68339 | 34870 ft | 372 kts | 104° |
| 2026-04-21 22:58 | 59.82400 | -141.58510 | 34879 ft | 371 kts | 105° |
| 2026-04-21 22:59 | 59.80895 | -141.48696 | 34882 ft | 371 kts | 105° |
| 2026-04-21 22:59 | 59.79393 | -141.38952 | 34880 ft | 371 kts | 105° |
| 2026-04-21 23:00 | 59.77874 | -141.29155 | 34882 ft | 371 kts | 105° |
| 2026-04-21 23:00 | 59.76350 | -141.19387 | 34883 ft | 371 kts | 105° |
| 2026-04-21 23:01 | 59.74820 | -141.09630 | 34883 ft | 371 kts | 105° |
| 2026-04-21 23:01 | 59.73532 | -141.01457 | 34875 ft | 370 kts | 105° |
| 2026-04-21 23:02 | 59.71992 | -140.91732 | 34905 ft | 369 kts | 105° |
| 2026-04-21 23:02 | 59.70446 | -140.82036 | 34889 ft | 369 kts | 106° |
| 2026-04-21 23:03 | 59.68895 | -140.72357 | 34886 ft | 368 kts | 106° |
| 2026-04-21 23:03 | 59.67348 | -140.62756 | 34886 ft | 368 kts | 106° |
| 2026-04-21 23:04 | 59.65789 | -140.53131 | 34882 ft | 367 kts | 106° |
| 2026-04-21 23:04 | 59.64224 | -140.43523 | 34883 ft | 367 kts | 106° |
| 2026-04-21 23:05 | 59.62654 | -140.33934 | 34885 ft | 366 kts | 106° |
| 2026-04-21 23:05 | 59.61079 | -140.24368 | 34885 ft | 366 kts | 107° |
| 2026-04-21 23:06 | 59.59500 | -140.14827 | 34890 ft | 365 kts | 107° |
| 2026-04-21 23:06 | 59.57913 | -140.05290 | 34891 ft | 365 kts | 107° |
| 2026-04-21 23:07 | 59.56332 | -139.95841 | 34889 ft | 365 kts | 107° |
| 2026-04-21 23:07 | 59.54732 | -139.86324 | 34894 ft | 365 kts | 107° |
| 2026-04-21 23:08 | 59.53128 | -139.76836 | 34897 ft | 365 kts | 107° |
| 2026-04-21 23:08 | 59.51365 | -139.67439 | 34907 ft | 365 kts | 111° |
| 2026-04-21 23:09 | 59.49343 | -139.58282 | 34911 ft | 364 kts | 118° |
| 2026-04-21 23:09 | 59.46871 | -139.49592 | 34912 ft | 364 kts | 117° |
| 2026-04-21 23:10 | 59.44451 | -139.40921 | 34909 ft | 364 kts | 118° |
| 2026-04-21 23:10 | 59.42016 | -139.32186 | 34906 ft | 364 kts | 119° |
| 2026-04-21 23:11 | 59.39579 | -139.23473 | 34902 ft | 364 kts | 119° |
| 2026-04-21 23:11 | 59.37132 | -139.14774 | 34893 ft | 363 kts | 119° |
| 2026-04-21 23:12 | 59.34681 | -139.06098 | 34900 ft | 363 kts | 119° |
| 2026-04-21 23:12 | 59.32233 | -138.97457 | 34905 ft | 363 kts | 120° |
| 2026-04-21 23:13 | 59.29776 | -138.88830 | 34908 ft | 363 kts | 120° |
| 2026-04-21 23:13 | 59.27313 | -138.80204 | 34907 ft | 363 kts | 120° |
| 2026-04-21 23:14 | 59.24861 | -138.71653 | 34911 ft | 363 kts | 120° |
| 2026-04-21 23:14 | 59.22384 | -138.63046 | 34908 ft | 363 kts | 120° |
| 2026-04-21 23:15 | 59.19903 | -138.54456 | 34917 ft | 363 kts | 120° |
| 2026-04-21 23:15 | 59.17421 | -138.45894 | 34949 ft | 363 kts | 120° |
| 2026-04-21 23:16 | 59.16170 | -138.41594 | 34740 ft | 369 kts | 120° |
| 2026-04-21 23:16 | 59.14882 | -138.37179 | 34393 ft | 380 kts | 120° |
| 2026-04-21 23:16 | 59.13562 | -138.32647 | 34044 ft | 389 kts | 120° |
| 2026-04-21 23:16 | 59.12210 | -138.28029 | 33627 ft | 396 kts | 120° |
| 2026-04-21 23:17 | 59.10831 | -138.23319 | 33216 ft | 403 kts | 120° |
| 2026-04-21 23:17 | 59.09429 | -138.18548 | 32810 ft | 409 kts | 120° |
| 2026-04-21 23:17 | 59.08010 | -138.13724 | 32413 ft | 414 kts | 119° |
| 2026-04-21 23:17 | 59.06570 | -138.08839 | 31979 ft | 418 kts | 119° |
| 2026-04-21 23:18 | 59.05137 | -138.03988 | 31597 ft | 422 kts | 118° |
| 2026-04-21 23:18 | 59.03665 | -137.99018 | 31218 ft | 427 kts | 118° |
| 2026-04-21 23:18 | 59.02173 | -137.93992 | 30842 ft | 431 kts | 118° |
| 2026-04-21 23:18 | 59.00671 | -137.88942 | 30473 ft | 431 kts | 118° |
| 2026-04-21 23:19 | 58.99177 | -137.83913 | 30081 ft | 428 kts | 118° |
| 2026-04-21 23:19 | 58.97686 | -137.78957 | 29644 ft | 424 kts | 118° |
| 2026-04-21 23:19 | 58.96214 | -137.74003 | 29206 ft | 422 kts | 118° |
| 2026-04-21 23:19 | 58.94736 | -137.69101 | 28779 ft | 421 kts | 118° |
| 2026-04-21 23:20 | 58.93272 | -137.64217 | 28355 ft | 418 kts | 118° |
| 2026-04-21 23:20 | 58.91807 | -137.59356 | 27944 ft | 418 kts | 118° |
| 2026-04-21 23:20 | 58.90338 | -137.54501 | 27529 ft | 417 kts | 118° |
| 2026-04-21 23:20 | 58.88882 | -137.49664 | 27114 ft | 413 kts | 119° |
| 2026-04-21 23:21 | 58.87432 | -137.44928 | 26714 ft | 407 kts | 119° |
| 2026-04-21 23:21 | 58.86013 | -137.40207 | 26327 ft | 405 kts | 118° |
| 2026-04-21 23:21 | 58.84575 | -137.35515 | 25934 ft | 405 kts | 119° |
| 2026-04-21 23:21 | 58.83160 | -137.30848 | 25555 ft | 401 kts | 118° |
| 2026-04-21 23:22 | 58.81741 | -137.26222 | 25171 ft | 399 kts | 120° |
| 2026-04-21 23:22 | 58.80333 | -137.21627 | 24802 ft | 398 kts | 119° |
| 2026-04-21 23:22 | 58.78931 | -137.17040 | 24433 ft | 397 kts | 119° |
| 2026-04-21 23:22 | 58.77539 | -137.12529 | 24080 ft | 396 kts | 119° |
| 2026-04-21 23:23 | 58.76133 | -137.07949 | 23723 ft | 402 kts | 119° |
| 2026-04-21 23:23 | 58.74679 | -137.03245 | 23273 ft | 411 kts | 120° |
| 2026-04-21 23:23 | 58.73209 | -136.98496 | 22844 ft | 413 kts | 119° |
| 2026-04-21 23:23 | 58.71737 | -136.93732 | 22431 ft | 415 kts | 120° |
| 2026-04-21 23:24 | 58.70252 | -136.88965 | 22020 ft | 415 kts | 120° |
| 2026-04-21 23:24 | 58.68776 | -136.84211 | 21606 ft | 415 kts | 120° |
| 2026-04-21 23:24 | 58.67291 | -136.79453 | 21208 ft | 414 kts | 120° |
| 2026-04-21 23:24 | 58.65816 | -136.74730 | 20821 ft | 413 kts | 120° |
| 2026-04-21 23:25 | 58.64335 | -136.70002 | 20424 ft | 412 kts | 120° |
| 2026-04-21 23:25 | 58.62863 | -136.65297 | 20038 ft | 410 kts | 121° |
| 2026-04-21 23:25 | 58.61391 | -136.60628 | 19651 ft | 408 kts | 121° |
| 2026-04-21 23:25 | 58.59930 | -136.55977 | 19275 ft | 403 kts | 121° |
| 2026-04-21 23:26 | 58.58496 | -136.51437 | 18883 ft | 394 kts | 121° |
| 2026-04-21 23:26 | 58.57090 | -136.46985 | 18524 ft | 386 kts | 121° |
| 2026-04-21 23:26 | 58.55704 | -136.42616 | 18128 ft | 381 kts | 121° |
| 2026-04-21 23:26 | 58.54348 | -136.38345 | 17720 ft | 378 kts | 121° |
| 2026-04-21 23:27 | 58.52987 | -136.34060 | 17299 ft | 376 kts | 122° |
| 2026-04-21 23:27 | 58.51629 | -136.29795 | 16897 ft | 373 kts | 121° |
| 2026-04-21 23:27 | 58.50282 | -136.25572 | 16494 ft | 371 kts | 122° |
| 2026-04-21 23:27 | 58.48939 | -136.21373 | 16108 ft | 369 kts | 122° |
| 2026-04-21 23:28 | 58.47606 | -136.17207 | 15719 ft | 367 kts | 122° |
| 2026-04-21 23:28 | 58.46267 | -136.13039 | 15336 ft | 368 kts | 122° |
| 2026-04-21 23:28 | 58.44932 | -136.08879 | 14952 ft | 367 kts | 122° |
| 2026-04-21 23:28 | 58.43595 | -136.04722 | 14575 ft | 367 kts | 122° |
| 2026-04-21 23:29 | 58.42256 | -136.00579 | 14208 ft | 366 kts | 122° |
| 2026-04-21 23:29 | 58.40927 | -135.96455 | 13834 ft | 364 kts | 122° |
| 2026-04-21 23:29 | 58.39601 | -135.92361 | 13427 ft | 360 kts | 122° |
| 2026-04-21 23:29 | 58.38316 | -135.88396 | 13028 ft | 353 kts | 122° |
| 2026-04-21 23:30 | 58.37031 | -135.84437 | 12624 ft | 347 kts | 122° |
| 2026-04-21 23:30 | 58.35768 | -135.80556 | 12219 ft | 343 kts | 122° |
| 2026-04-21 23:30 | 58.34520 | -135.76723 | 11827 ft | 339 kts | 122° |
| 2026-04-21 23:30 | 58.33286 | -135.72940 | 11439 ft | 335 kts | 122° |
| 2026-04-21 23:31 | 58.32072 | -135.69229 | 11058 ft | 325 kts | 122° |
| 2026-04-21 23:31 | 58.30895 | -135.65634 | 10678 ft | 315 kts | 122° |
| 2026-04-21 23:31 | 58.29753 | -135.62145 | 10306 ft | 307 kts | 122° |
| 2026-04-21 23:31 | 58.28633 | -135.58734 | 9927 ft | 301 kts | 123° |
| 2026-04-21 23:32 | 58.27528 | -135.55382 | 9515 ft | 297 kts | 123° |
| 2026-04-21 23:32 | 58.26446 | -135.52073 | 9096 ft | 293 kts | 123° |
| 2026-04-21 23:32 | 58.25368 | -135.48825 | 8683 ft | 289 kts | 123° |
| 2026-04-21 23:32 | 58.24310 | -135.45610 | 8284 ft | 286 kts | 123° |
| 2026-04-21 23:33 | 58.23260 | -135.42432 | 7888 ft | 282 kts | 123° |
| 2026-04-21 23:33 | 58.22345 | -135.39168 | 7496 ft | 280 kts | 112° |
| 2026-04-21 23:33 | 58.21804 | -135.35660 | 7192 ft | 273 kts | 101° |
| 2026-04-21 23:33 | 58.21545 | -135.32159 | 7053 ft | 261 kts | 92° |
| 2026-04-21 23:34 | 58.21662 | -135.28820 | 6988 ft | 248 kts | 78° |
| 2026-04-21 23:34 | 58.22052 | -135.25767 | 6957 ft | 236 kts | 73° |
| 2026-04-21 23:34 | 58.22442 | -135.22822 | 6946 ft | 225 kts | 75° |
| 2026-04-21 23:34 | 58.22815 | -135.20005 | 6937 ft | 215 kts | 75° |
| 2026-04-21 23:35 | 58.23350 | -135.17420 | 6935 ft | 207 kts | 58° |
| 2026-04-21 23:35 | 58.24229 | -135.15242 | 6624 ft | 208 kts | 41° |
| 2026-04-21 23:35 | 58.25375 | -135.13644 | 6251 ft | 200 kts | 24° |
| 2026-04-21 23:35 | 58.26640 | -135.12797 | 5887 ft | 188 kts | 6° |
| 2026-04-21 23:36 | 58.27871 | -135.12324 | 5686 ft | 175 kts | 15° |
| 2026-04-21 23:36 | 58.28915 | -135.11373 | 5604 ft | 158 kts | 24° |
| 2026-04-21 23:36 | 58.29838 | -135.10407 | 5564 ft | 145 kts | 25° |
| 2026-04-21 23:36 | 58.30678 | -135.09485 | 5543 ft | 135 kts | 25° |
| 2026-04-21 23:37 | 58.31557 | -135.08516 | 5533 ft | 157 kts | 25° |
| 2026-04-21 23:37 | 58.32566 | -135.07430 | 5530 ft | 175 kts | 25° |
| 2026-04-21 23:37 | 58.33653 | -135.06274 | 5525 ft | 181 kts | 26° |
| 2026-04-21 23:37 | 58.34763 | -135.05096 | 5524 ft | 184 kts | 26° |
| 2026-04-21 23:38 | 58.35886 | -135.03897 | 5527 ft | 186 kts | 26° |
| 2026-04-21 23:38 | 58.36971 | -135.02526 | 5394 ft | 195 kts | 43° |
| 2026-04-21 23:38 | 58.37613 | -135.00170 | 4999 ft | 209 kts | 80° |
| 2026-04-21 23:38 | 58.37592 | -134.97382 | 4598 ft | 213 kts | 98° |
| 2026-04-21 23:39 | 58.37385 | -134.94565 | 4195 ft | 216 kts | 101° |
| 2026-04-21 23:39 | 58.37147 | -134.91775 | 3886 ft | 214 kts | 101° |
| 2026-04-21 23:39 | 58.36913 | -134.89040 | 3747 ft | 205 kts | 101° |
| 2026-04-21 23:39 | 58.36713 | -134.86399 | 3607 ft | 201 kts | 98° |
| 2026-04-21 23:40 | 58.36625 | -134.83707 | 3384 ft | 206 kts | 93° |
| 2026-04-21 23:40 | 58.36623 | -134.80950 | 3183 ft | 205 kts | 90° |
| 2026-04-21 23:40 | 58.36651 | -134.78351 | 3143 ft | 185 kts | 90° |
| 2026-04-21 23:40 | 58.36679 | -134.75970 | 2715 ft | 177 kts | 90° |
| 2026-04-21 23:41 | 58.36666 | -134.73659 | 2204 ft | 172 kts | 94° |
| 2026-04-21 23:41 | 58.36616 | -134.71426 | 1785 ft | 165 kts | 95° |
| 2026-04-21 23:41 | 58.36527 | -134.69330 | 1407 ft | 150 kts | 98° |
| 2026-04-21 23:41 | 58.36425 | -134.67435 | 1140 ft | 141 kts | 100° |
| 2026-04-21 23:42 | 58.36336 | -134.65617 | 897 ft | 135 kts | 97° |
| 2026-04-21 23:42 | 58.36259 | -134.63831 | 643 ft | 134 kts | 99° |
| 2026-04-21 23:42 | 58.36119 | -134.62116 | 435 ft | 128 kts | 107° |
| 2026-04-21 23:42 | 58.35899 | -134.60542 | 125 ft | 116 kts | 104° |
| 2026-04-21 23:43 | 58.35796 | -134.59376 | 30 ft | 55 kts | 86° |
| 2026-04-21 23:43 | 58.35798 | -134.59118 | 30 ft | 0 kts | 90° |